sensor_id;sensor_type;location;lat;lon;timestamp;pressure;altitude;pressure_sealevel;temperature;humidity
64698;BME280;51124;53.394;-6.294;2024-02-23T00:02:07;97385.76;;;15.10;9.96
64698;BME280;51124;53.394;-6.294;2024-02-23T00:04:34;97390.04;;;15.09;9.90
64698;BME280;51124;53.394;-6.294;2024-02-23T00:07:02;97380.88;;;14.97;9.74
64698;BME280;51124;53.394;-6.294;2024-02-23T00:09:29;97385.81;;;15.21;9.90
64698;BME280;51124;53.394;-6.294;2024-02-23T00:11:56;97387.57;;;14.79;9.70
64698;BME280;51124;53.394;-6.294;2024-02-23T00:14:24;97379.85;;;14.47;9.81
64698;BME280;51124;53.394;-6.294;2024-02-23T00:16:51;97379.08;;;15.41;9.82
64698;BME280;51124;53.394;-6.294;2024-02-23T00:19:18;97381.53;;;14.29;9.79
64698;BME280;51124;53.394;-6.294;2024-02-23T00:21:46;97378.38;;;15.12;9.66
64698;BME280;51124;53.394;-6.294;2024-02-23T00:24:14;97376.29;;;14.70;9.59
64698;BME280;51124;53.394;-6.294;2024-02-23T00:26:41;97379.70;;;14.72;9.58
64698;BME280;51124;53.394;-6.294;2024-02-23T00:29:08;97382.06;;;14.86;9.57
64698;BME280;51124;53.394;-6.294;2024-02-23T00:31:37;97380.90;;;14.82;9.53
64698;BME280;51124;53.394;-6.294;2024-02-23T00:34:04;97379.41;;;14.53;9.56
64698;BME280;51124;53.394;-6.294;2024-02-23T00:36:31;97381.45;;;14.06;9.48
64698;BME280;51124;53.394;-6.294;2024-02-23T00:38:59;97383.63;;;14.78;9.35
64698;BME280;51124;53.394;-6.294;2024-02-23T00:41:26;97388.63;;;14.88;9.21
64698;BME280;51124;53.394;-6.294;2024-02-23T00:43:53;97400.28;;;14.62;9.33
64698;BME280;51124;53.394;-6.294;2024-02-23T00:46:21;97405.57;;;13.81;9.53
64698;BME280;51124;53.394;-6.294;2024-02-23T00:48:48;97409.43;;;14.64;9.35
64698;BME280;51124;53.394;-6.294;2024-02-23T00:51:16;97410.15;;;14.54;9.51
64698;BME280;51124;53.394;-6.294;2024-02-23T00:53:43;97412.63;;;14.99;9.44
64698;BME280;51124;53.394;-6.294;2024-02-23T00:56:11;97410.47;;;14.74;9.38
64698;BME280;51124;53.394;-6.294;2024-02-23T00:58:38;97410.88;;;14.40;9.38
64698;BME280;51124;53.394;-6.294;2024-02-23T01:01:06;97412.99;;;14.09;9.42
64698;BME280;51124;53.394;-6.294;2024-02-23T01:03:33;97409.17;;;13.61;9.47
64698;BME280;51124;53.394;-6.294;2024-02-23T01:06:01;97406.03;;;14.08;9.27
64698;BME280;51124;53.394;-6.294;2024-02-23T01:08:28;97403.94;;;15.32;9.32
64698;BME280;51124;53.394;-6.294;2024-02-23T01:10:56;97396.42;;;14.82;9.27
64698;BME280;51124;53.394;-6.294;2024-02-23T01:13:23;97405.16;;;14.46;9.41
64698;BME280;51124;53.394;-6.294;2024-02-23T01:15:50;97395.47;;;15.76;9.22
64698;BME280;51124;53.394;-6.294;2024-02-23T01:18:18;97397.65;;;14.50;9.47
64698;BME280;51124;53.394;-6.294;2024-02-23T01:20:45;97390.68;;;14.45;9.41
64698;BME280;51124;53.394;-6.294;2024-02-23T01:23:12;97381.41;;;15.14;9.35
64698;BME280;51124;53.394;-6.294;2024-02-23T01:25:40;97388.97;;;13.89;9.27
64698;BME280;51124;53.394;-6.294;2024-02-23T01:28:07;97383.83;;;15.74;9.30
64698;BME280;51124;53.394;-6.294;2024-02-23T01:30:35;97385.78;;;15.03;9.44
64698;BME280;51124;53.394;-6.294;2024-02-23T01:33:02;97389.18;;;14.55;9.51
64698;BME280;51124;53.394;-6.294;2024-02-23T01:35:29;97384.64;;;14.40;9.50
64698;BME280;51124;53.394;-6.294;2024-02-23T01:37:57;97387.53;;;14.09;9.25
64698;BME280;51124;53.394;-6.294;2024-02-23T01:40:24;97393.16;;;14.10;9.33
64698;BME280;51124;53.394;-6.294;2024-02-23T01:43:02;97391.23;;;14.16;9.30
64698;BME280;51124;53.394;-6.294;2024-02-23T01:45:20;97395.72;;;16.98;9.51
64698;BME280;51124;53.394;-6.294;2024-02-23T01:47:47;97393.27;;;16.96;9.96
64698;BME280;51124;53.394;-6.294;2024-02-23T01:50:15;97390.70;;;15.19;10.41
64698;BME280;51124;53.394;-6.294;2024-02-23T01:52:42;97393.39;;;15.55;10.21
64698;BME280;51124;53.394;-6.294;2024-02-23T01:55:10;97392.01;;;18.20;10.18
64698;BME280;51124;53.394;-6.294;2024-02-23T01:57:38;97389.87;;;18.02;10.75
64698;BME280;51124;53.394;-6.294;2024-02-23T02:00:07;97391.21;;;17.72;11.11
64698;BME280;51124;53.394;-6.294;2024-02-23T02:02:34;97388.40;;;17.37;11.32
64698;BME280;51124;53.394;-6.294;2024-02-23T02:05:03;97383.43;;;17.34;11.46
64698;BME280;51124;53.394;-6.294;2024-02-23T02:07:30;97376.30;;;16.64;11.60
64698;BME280;51124;53.394;-6.294;2024-02-23T02:09:58;97375.27;;;17.77;11.59
64698;BME280;51124;53.394;-6.294;2024-02-23T02:12:29;97370.05;;;17.50;11.64
64698;BME280;51124;53.394;-6.294;2024-02-23T02:14:57;97368.26;;;17.13;11.67
64698;BME280;51124;53.394;-6.294;2024-02-23T02:17:25;97372.83;;;16.30;11.68
64698;BME280;51124;53.394;-6.294;2024-02-23T02:19:54;97373.20;;;17.51;11.70
64698;BME280;51124;53.394;-6.294;2024-02-23T02:22:22;97375.00;;;16.63;11.96
64698;BME280;51124;53.394;-6.294;2024-02-23T02:24:50;97384.52;;;16.96;11.79
64698;BME280;51124;53.394;-6.294;2024-02-23T02:27:18;97385.91;;;16.98;11.86
64698;BME280;51124;53.394;-6.294;2024-02-23T02:29:46;97391.46;;;16.68;11.81
64698;BME280;51124;53.394;-6.294;2024-02-23T02:32:14;97398.70;;;17.46;11.84
64698;BME280;51124;53.394;-6.294;2024-02-23T02:34:41;97397.61;;;16.03;12.03
64698;BME280;51124;53.394;-6.294;2024-02-23T02:37:09;97402.08;;;16.89;11.78
64698;BME280;51124;53.394;-6.294;2024-02-23T02:39:38;97397.57;;;16.30;11.62
64698;BME280;51124;53.394;-6.294;2024-02-23T02:42:06;97395.05;;;16.53;12.05
64698;BME280;51124;53.394;-6.294;2024-02-23T02:44:34;97394.98;;;16.72;11.80
64698;BME280;51124;53.394;-6.294;2024-02-23T02:47:01;97396.56;;;14.61;11.65
64698;BME280;51124;53.394;-6.294;2024-02-23T02:49:29;97390.10;;;13.64;11.33
64698;BME280;51124;53.394;-6.294;2024-02-23T02:51:56;97396.27;;;14.19;11.03
64698;BME280;51124;53.394;-6.294;2024-02-23T02:54:23;97393.71;;;14.25;10.58
64698;BME280;51124;53.394;-6.294;2024-02-23T02:56:50;97402.14;;;15.22;10.36
64698;BME280;51124;53.394;-6.294;2024-02-23T02:59:18;97407.78;;;14.96;10.18
64698;BME280;51124;53.394;-6.294;2024-02-23T03:01:46;97410.15;;;14.27;10.06
64698;BME280;51124;53.394;-6.294;2024-02-23T03:04:13;97408.86;;;13.57;10.03
64698;BME280;51124;53.394;-6.294;2024-02-23T03:06:41;97407.92;;;14.48;9.87
64698;BME280;51124;53.394;-6.294;2024-02-23T03:09:08;97415.56;;;14.21;9.72
64698;BME280;51124;53.394;-6.294;2024-02-23T03:11:36;97415.09;;;14.24;9.49
64698;BME280;51124;53.394;-6.294;2024-02-23T03:14:03;97419.05;;;13.90;9.51
64698;BME280;51124;53.394;-6.294;2024-02-23T03:16:30;97426.97;;;13.79;9.67
64698;BME280;51124;53.394;-6.294;2024-02-23T03:18:58;97427.81;;;14.62;9.66
64698;BME280;51124;53.394;-6.294;2024-02-23T03:21:25;97433.24;;;13.93;9.57
64698;BME280;51124;53.394;-6.294;2024-02-23T03:23:52;97431.81;;;14.69;9.46
64698;BME280;51124;53.394;-6.294;2024-02-23T03:26:20;97424.59;;;14.04;9.38
64698;BME280;51124;53.394;-6.294;2024-02-23T03:28:47;97433.58;;;13.97;9.69
64698;BME280;51124;53.394;-6.294;2024-02-23T03:31:15;97423.50;;;14.57;9.25
64698;BME280;51124;53.394;-6.294;2024-02-23T03:33:42;97418.57;;;14.42;9.44
64698;BME280;51124;53.394;-6.294;2024-02-23T03:36:09;97422.76;;;13.26;9.60
64698;BME280;51124;53.394;-6.294;2024-02-23T03:38:37;97420.30;;;14.27;9.60
64698;BME280;51124;53.394;-6.294;2024-02-23T03:41:05;97421.57;;;14.27;9.24
64698;BME280;51124;53.394;-6.294;2024-02-23T03:43:32;97414.75;;;14.64;9.34
64698;BME280;51124;53.394;-6.294;2024-02-23T03:45:59;97409.53;;;14.72;9.22
64698;BME280;51124;53.394;-6.294;2024-02-23T03:48:27;97410.32;;;14.48;9.30
64698;BME280;51124;53.394;-6.294;2024-02-23T03:50:54;97407.56;;;14.22;9.31
64698;BME280;51124;53.394;-6.294;2024-02-23T03:53:22;97406.95;;;14.02;9.33
64698;BME280;51124;53.394;-6.294;2024-02-23T03:55:49;97413.51;;;13.23;9.47
64698;BME280;51124;53.394;-6.294;2024-02-23T03:58:16;97401.84;;;14.08;9.17
64698;BME280;51124;53.394;-6.294;2024-02-23T04:00:45;97402.65;;;14.26;9.19
64698;BME280;51124;53.394;-6.294;2024-02-23T04:03:12;97396.75;;;14.74;9.20
64698;BME280;51124;53.394;-6.294;2024-02-23T04:05:39;97397.57;;;13.88;9.30
64698;BME280;51124;53.394;-6.294;2024-02-23T04:08:07;97390.50;;;13.98;9.19
64698;BME280;51124;53.394;-6.294;2024-02-23T04:10:34;97387.45;;;14.54;9.07
64698;BME280;51124;53.394;-6.294;2024-02-23T04:13:02;97386.72;;;13.67;9.18
64698;BME280;51124;53.394;-6.294;2024-02-23T04:15:29;97375.58;;;14.42;9.17
64698;BME280;51124;53.394;-6.294;2024-02-23T04:17:57;97379.38;;;13.65;9.45
64698;BME280;51124;53.394;-6.294;2024-02-23T04:20:24;97381.78;;;14.88;9.44
64698;BME280;51124;53.394;-6.294;2024-02-23T04:22:52;97381.01;;;13.68;9.34
64698;BME280;51124;53.394;-6.294;2024-02-23T04:25:19;97386.13;;;14.08;9.29
64698;BME280;51124;53.394;-6.294;2024-02-23T04:27:47;97378.01;;;14.31;9.41
64698;BME280;51124;53.394;-6.294;2024-02-23T04:30:14;97371.48;;;13.73;9.44
64698;BME280;51124;53.394;-6.294;2024-02-23T04:32:42;97374.18;;;14.42;9.44
64698;BME280;51124;53.394;-6.294;2024-02-23T04:35:10;97377.03;;;14.26;9.33
64698;BME280;51124;53.394;-6.294;2024-02-23T04:37:37;97377.22;;;13.71;9.40
64698;BME280;51124;53.394;-6.294;2024-02-23T04:40:06;97376.79;;;13.39;9.29
64698;BME280;51124;53.394;-6.294;2024-02-23T04:42:33;97370.11;;;13.67;9.37
64698;BME280;51124;53.394;-6.294;2024-02-23T04:45:01;97372.01;;;14.74;9.20
64698;BME280;51124;53.394;-6.294;2024-02-23T04:47:29;97366.50;;;14.21;9.13
64698;BME280;51124;53.394;-6.294;2024-02-23T04:49:56;97373.37;;;16.49;9.29
64698;BME280;51124;53.394;-6.294;2024-02-23T04:52:24;97377.18;;;16.72;9.44
64698;BME280;51124;53.394;-6.294;2024-02-23T04:54:51;97381.78;;;15.21;10.00
64698;BME280;51124;53.394;-6.294;2024-02-23T04:57:18;97389.90;;;14.28;9.96
64698;BME280;51124;53.394;-6.294;2024-02-23T04:59:46;97391.58;;;18.23;10.18
64698;BME280;51124;53.394;-6.294;2024-02-23T05:02:14;97393.69;;;17.12;10.74
64698;BME280;51124;53.394;-6.294;2024-02-23T05:04:42;97390.18;;;16.97;10.86
64698;BME280;51124;53.394;-6.294;2024-02-23T05:07:09;97399.08;;;16.56;11.18
64698;BME280;51124;53.394;-6.294;2024-02-23T05:09:37;97398.75;;;15.99;11.26
64698;BME280;51124;53.394;-6.294;2024-02-23T05:12:06;97407.04;;;16.15;11.37
64698;BME280;51124;53.394;-6.294;2024-02-23T05:14:34;97407.74;;;16.52;11.44
64698;BME280;51124;53.394;-6.294;2024-02-23T05:17:01;97412.63;;;16.72;11.52
64698;BME280;51124;53.394;-6.294;2024-02-23T05:19:29;97414.54;;;17.02;11.52
64698;BME280;51124;53.394;-6.294;2024-02-23T05:21:57;97413.01;;;16.25;11.59
64698;BME280;51124;53.394;-6.294;2024-02-23T05:24:25;97407.23;;;16.30;11.39
64698;BME280;51124;53.394;-6.294;2024-02-23T05:26:52;97416.04;;;16.88;11.33
64698;BME280;51124;53.394;-6.294;2024-02-23T05:29:20;97414.08;;;16.77;11.56
64698;BME280;51124;53.394;-6.294;2024-02-23T05:31:49;97418.60;;;15.78;11.49
64698;BME280;51124;53.394;-6.294;2024-02-23T05:34:17;97417.54;;;16.80;11.56
64698;BME280;51124;53.394;-6.294;2024-02-23T05:36:45;97418.53;;;16.50;11.66
64698;BME280;51124;53.394;-6.294;2024-02-23T05:39:13;97414.58;;;16.18;11.72
64698;BME280;51124;53.394;-6.294;2024-02-23T05:41:41;97417.50;;;16.29;11.63
64698;BME280;51124;53.394;-6.294;2024-02-23T05:44:09;97420.10;;;16.30;11.71
64698;BME280;51124;53.394;-6.294;2024-02-23T05:46:38;97428.14;;;17.17;11.59
64698;BME280;51124;53.394;-6.294;2024-02-23T05:49:05;97435.36;;;15.44;11.71
64698;BME280;51124;53.394;-6.294;2024-02-23T05:51:33;97435.92;;;14.40;11.25
64698;BME280;51124;53.394;-6.294;2024-02-23T05:54:00;97436.24;;;13.92;10.74
64698;BME280;51124;53.394;-6.294;2024-02-23T05:56:28;97439.46;;;13.27;10.73
64698;BME280;51124;53.394;-6.294;2024-02-23T05:58:55;97438.47;;;13.32;10.70
64698;BME280;51124;53.394;-6.294;2024-02-23T06:01:22;97434.52;;;15.07;10.20
64698;BME280;51124;53.394;-6.294;2024-02-23T06:03:50;97434.98;;;14.23;10.22
64698;BME280;51124;53.394;-6.294;2024-02-23T06:06:17;97433.93;;;14.35;9.87
64698;BME280;51124;53.394;-6.294;2024-02-23T06:08:45;97439.82;;;13.89;9.82
64698;BME280;51124;53.394;-6.294;2024-02-23T06:11:12;97444.40;;;14.65;9.34
64698;BME280;51124;53.394;-6.294;2024-02-23T06:13:40;97443.45;;;14.18;9.53
64698;BME280;51124;53.394;-6.294;2024-02-23T06:16:11;97447.09;;;13.31;9.62
64698;BME280;51124;53.394;-6.294;2024-02-23T06:18:39;97446.54;;;13.07;9.54
64698;BME280;51124;53.394;-6.294;2024-02-23T06:21:13;97448.39;;;13.98;9.49
64698;BME280;51124;53.394;-6.294;2024-02-23T06:23:40;97450.21;;;13.70;9.54
64698;BME280;51124;53.394;-6.294;2024-02-23T06:26:08;97446.66;;;12.72;9.59
64698;BME280;51124;53.394;-6.294;2024-02-23T06:28:36;97450.31;;;13.43;9.32
64698;BME280;51124;53.394;-6.294;2024-02-23T06:31:03;97451.67;;;13.44;9.40
64698;BME280;51124;53.394;-6.294;2024-02-23T06:33:32;97453.85;;;13.25;9.34
64698;BME280;51124;53.394;-6.294;2024-02-23T06:35:59;97453.17;;;13.72;9.24
64698;BME280;51124;53.394;-6.294;2024-02-23T06:38:27;97455.70;;;14.23;9.16
64698;BME280;51124;53.394;-6.294;2024-02-23T06:40:54;97454.89;;;13.91;9.26
64698;BME280;51124;53.394;-6.294;2024-02-23T06:43:22;97449.14;;;13.73;9.27
64698;BME280;51124;53.394;-6.294;2024-02-23T06:45:50;97450.81;;;13.17;9.19
64698;BME280;51124;53.394;-6.294;2024-02-23T06:48:18;97452.07;;;13.23;9.19
64698;BME280;51124;53.394;-6.294;2024-02-23T06:50:45;97455.36;;;13.80;9.18
64698;BME280;51124;53.394;-6.294;2024-02-23T06:53:13;97458.04;;;13.83;9.23
64698;BME280;51124;53.394;-6.294;2024-02-23T06:55:40;97462.92;;;12.99;9.28
64698;BME280;51124;53.394;-6.294;2024-02-23T06:58:07;97468.53;;;13.23;9.34
64698;BME280;51124;53.394;-6.294;2024-02-23T07:00:40;97467.26;;;13.69;9.23
64698;BME280;51124;53.394;-6.294;2024-02-23T07:03:08;97467.17;;;13.20;9.24
64698;BME280;51124;53.394;-6.294;2024-02-23T07:05:35;97474.76;;;13.55;9.16
64698;BME280;51124;53.394;-6.294;2024-02-23T07:08:03;97480.04;;;13.16;9.16
64698;BME280;51124;53.394;-6.294;2024-02-23T07:10:31;97480.16;;;14.05;9.21
64698;BME280;51124;53.394;-6.294;2024-02-23T07:12:58;97480.39;;;13.58;9.14
64698;BME280;51124;53.394;-6.294;2024-02-23T07:15:26;97479.03;;;14.21;9.03
64698;BME280;51124;53.394;-6.294;2024-02-23T07:17:53;97479.15;;;14.05;9.23
64698;BME280;51124;53.394;-6.294;2024-02-23T07:20:21;97481.69;;;14.16;9.05
64698;BME280;51124;53.394;-6.294;2024-02-23T07:22:49;97490.51;;;13.89;9.24
64698;BME280;51124;53.394;-6.294;2024-02-23T07:25:18;97494.43;;;13.80;9.27
64698;BME280;51124;53.394;-6.294;2024-02-23T07:27:46;97490.87;;;13.44;9.35
64698;BME280;51124;53.394;-6.294;2024-02-23T07:30:14;97501.20;;;14.04;9.24
64698;BME280;51124;53.394;-6.294;2024-02-23T07:32:42;97502.28;;;13.19;9.10
64698;BME280;51124;53.394;-6.294;2024-02-23T07:35:10;97503.23;;;14.24;9.15
64698;BME280;51124;53.394;-6.294;2024-02-23T07:37:38;97511.50;;;14.50;9.02
64698;BME280;51124;53.394;-6.294;2024-02-23T07:40:06;97515.99;;;14.27;9.31
64698;BME280;51124;53.394;-6.294;2024-02-23T07:42:34;97519.40;;;14.22;9.05
64698;BME280;51124;53.394;-6.294;2024-02-23T07:45:02;97522.97;;;14.25;8.95
64698;BME280;51124;53.394;-6.294;2024-02-23T07:47:30;97519.12;;;14.08;8.99
64698;BME280;51124;53.394;-6.294;2024-02-23T07:49:57;97522.47;;;14.46;8.87
64698;BME280;51124;53.394;-6.294;2024-02-23T07:52:24;97515.97;;;16.56;8.85
64698;BME280;51124;53.394;-6.294;2024-02-23T07:54:52;97522.60;;;16.73;9.22
64698;BME280;51124;53.394;-6.294;2024-02-23T07:57:20;97521.35;;;17.10;9.51
64698;BME280;51124;53.394;-6.294;2024-02-23T07:59:47;97521.60;;;15.72;9.31
64698;BME280;51124;53.394;-6.294;2024-02-23T08:02:15;97523.53;;;18.39;9.40
64698;BME280;51124;53.394;-6.294;2024-02-23T08:04:43;97530.20;;;18.57;9.77
64698;BME280;51124;53.394;-6.294;2024-02-23T08:07:11;97532.57;;;18.32;10.10
64698;BME280;51124;53.394;-6.294;2024-02-23T08:09:39;97531.72;;;18.30;10.20
64698;BME280;51124;53.394;-6.294;2024-02-23T08:12:07;97531.93;;;17.89;10.64
64698;BME280;51124;53.394;-6.294;2024-02-23T08:14:35;97538.32;;;18.30;10.43
64698;BME280;51124;53.394;-6.294;2024-02-23T08:17:03;97541.05;;;18.50;10.61
64698;BME280;51124;53.394;-6.294;2024-02-23T08:19:31;97539.31;;;17.71;10.64
64698;BME280;51124;53.394;-6.294;2024-02-23T08:21:59;97542.33;;;17.99;10.64
64698;BME280;51124;53.394;-6.294;2024-02-23T08:24:27;97550.27;;;17.52;10.95
64698;BME280;51124;53.394;-6.294;2024-02-23T08:26:55;97553.11;;;18.74;10.85
64698;BME280;51124;53.394;-6.294;2024-02-23T08:29:23;97556.19;;;18.15;11.26
64698;BME280;51124;53.394;-6.294;2024-02-23T08:31:51;97559.10;;;17.32;10.83
64698;BME280;51124;53.394;-6.294;2024-02-23T08:34:18;97559.58;;;18.46;10.06
64698;BME280;51124;53.394;-6.294;2024-02-23T08:36:46;97562.27;;;18.98;10.40
64698;BME280;51124;53.394;-6.294;2024-02-23T08:39:14;97571.25;;;18.70;10.54
64698;BME280;51124;53.394;-6.294;2024-02-23T08:41:42;97568.71;;;17.93;11.02
64698;BME280;51124;53.394;-6.294;2024-02-23T08:44:10;97569.95;;;18.28;10.92
64698;BME280;51124;53.394;-6.294;2024-02-23T08:46:38;97574.70;;;17.65;10.91
64698;BME280;51124;53.394;-6.294;2024-02-23T08:49:06;97574.14;;;18.64;11.01
64698;BME280;51124;53.394;-6.294;2024-02-23T08:51:33;97575.62;;;18.65;11.10
64698;BME280;51124;53.394;-6.294;2024-02-23T08:54:01;97575.19;;;17.51;10.96
64698;BME280;51124;53.394;-6.294;2024-02-23T08:56:28;97569.53;;;16.77;10.56
64698;BME280;51124;53.394;-6.294;2024-02-23T08:58:56;97567.58;;;16.37;10.16
64698;BME280;51124;53.394;-6.294;2024-02-23T09:01:23;97568.33;;;16.25;9.98
64698;BME280;51124;53.394;-6.294;2024-02-23T09:03:51;97572.61;;;17.12;9.62
64698;BME280;51124;53.394;-6.294;2024-02-23T09:06:18;97573.41;;;16.69;9.56
64698;BME280;51124;53.394;-6.294;2024-02-23T09:08:45;97580.73;;;16.18;9.39
64698;BME280;51124;53.394;-6.294;2024-02-23T09:11:13;97584.81;;;16.47;9.28
64698;BME280;51124;53.394;-6.294;2024-02-23T09:13:40;97590.23;;;16.30;9.12
64698;BME280;51124;53.394;-6.294;2024-02-23T09:16:08;97598.22;;;17.38;8.78
64698;BME280;51124;53.394;-6.294;2024-02-23T09:18:36;97590.98;;;17.65;8.94
64698;BME280;51124;53.394;-6.294;2024-02-23T09:21:03;97590.43;;;17.23;8.90
64698;BME280;51124;53.394;-6.294;2024-02-23T09:23:31;97585.85;;;18.24;8.79
64698;BME280;51124;53.394;-6.294;2024-02-23T09:25:59;97582.12;;;16.84;8.78
64698;BME280;51124;53.394;-6.294;2024-02-23T09:28:28;97579.77;;;17.65;8.29
64698;BME280;51124;53.394;-6.294;2024-02-23T09:30:57;97582.08;;;17.94;7.60
64698;BME280;51124;53.394;-6.294;2024-02-23T09:33:24;97581.75;;;17.66;7.38
64698;BME280;51124;53.394;-6.294;2024-02-23T09:35:51;97582.02;;;17.30;7.23
64698;BME280;51124;53.394;-6.294;2024-02-23T09:38:19;97583.21;;;17.48;7.14
64698;BME280;51124;53.394;-6.294;2024-02-23T09:40:46;97578.06;;;17.62;7.13
64698;BME280;51124;53.394;-6.294;2024-02-23T09:43:14;97575.77;;;17.50;7.18
64698;BME280;51124;53.394;-6.294;2024-02-23T09:45:42;97571.85;;;18.31;7.02
64698;BME280;51124;53.394;-6.294;2024-02-23T09:48:11;97576.49;;;18.17;7.11
64698;BME280;51124;53.394;-6.294;2024-02-23T09:50:42;97580.73;;;17.38;7.42
64698;BME280;51124;53.394;-6.294;2024-02-23T09:53:13;97581.34;;;17.97;7.52
64698;BME280;51124;53.394;-6.294;2024-02-23T09:55:41;97581.12;;;17.77;7.80
64698;BME280;51124;53.394;-6.294;2024-02-23T09:58:11;97588.92;;;16.68;8.01
64698;BME280;51124;53.394;-6.294;2024-02-23T10:00:41;97589.22;;;17.42;8.04
64698;BME280;51124;53.394;-6.294;2024-02-23T10:03:08;97586.19;;;17.17;8.06
64698;BME280;51124;53.394;-6.294;2024-02-23T10:05:36;97587.05;;;16.67;8.13
64698;BME280;51124;53.394;-6.294;2024-02-23T10:08:04;97589.70;;;17.09;8.17
64698;BME280;51124;53.394;-6.294;2024-02-23T10:10:32;97588.77;;;16.89;8.35
64698;BME280;51124;53.394;-6.294;2024-02-23T10:10:48;97595.37;;;17.20;8.29
64698;BME280;51124;53.394;-6.294;2024-02-23T10:13:17;97595.47;;;17.14;8.46
64698;BME280;51124;53.394;-6.294;2024-02-23T10:15:45;97601.00;;;16.33;8.70
64698;BME280;51124;53.394;-6.294;2024-02-23T10:18:13;97612.88;;;15.19;8.77
64698;BME280;51124;53.394;-6.294;2024-02-23T10:20:40;97610.60;;;15.99;8.63
64698;BME280;51124;53.394;-6.294;2024-02-23T10:23:07;97615.46;;;16.14;8.70
64698;BME280;51124;53.394;-6.294;2024-02-23T10:25:35;97612.62;;;16.67;8.64
64698;BME280;51124;53.394;-6.294;2024-02-23T10:28:03;97618.82;;;15.75;8.89
64698;BME280;51124;53.394;-6.294;2024-02-23T10:30:30;97618.05;;;16.70;8.58
64698;BME280;51124;53.394;-6.294;2024-02-23T10:32:59;97624.79;;;15.98;8.67
64698;BME280;51124;53.394;-6.294;2024-02-23T10:35:27;97636.73;;;15.27;9.04
64698;BME280;51124;53.394;-6.294;2024-02-23T10:37:56;97635.74;;;16.05;9.21
64698;BME280;51124;53.394;-6.294;2024-02-23T10:40:23;97635.97;;;15.69;8.92
64698;BME280;51124;53.394;-6.294;2024-02-23T10:42:52;97635.90;;;16.89;9.11
64698;BME280;51124;53.394;-6.294;2024-02-23T10:45:23;97629.07;;;17.66;8.95
64698;BME280;51124;53.394;-6.294;2024-02-23T10:47:52;97631.13;;;16.84;9.13
64698;BME280;51124;53.394;-6.294;2024-02-23T10:50:20;97632.79;;;15.67;9.21
64698;BME280;51124;53.394;-6.294;2024-02-23T10:52:49;97629.82;;;16.51;8.96
64698;BME280;51124;53.394;-6.294;2024-02-23T10:55:17;97633.02;;;16.67;8.66
64698;BME280;51124;53.394;-6.294;2024-02-23T10:57:45;97631.99;;;17.14;7.87
64698;BME280;51124;53.394;-6.294;2024-02-23T11:00:16;97638.44;;;19.93;8.10
64698;BME280;51124;53.394;-6.294;2024-02-23T11:02:46;97642.26;;;18.47;8.77
64698;BME280;51124;53.394;-6.294;2024-02-23T11:05:14;97648.45;;;17.97;8.90
64698;BME280;51124;53.394;-6.294;2024-02-23T11:07:43;97647.81;;;17.23;8.84
64698;BME280;51124;53.394;-6.294;2024-02-23T11:10:15;97649.47;;;20.12;9.07
64698;BME280;51124;53.394;-6.294;2024-02-23T11:12:44;97651.93;;;19.45;9.84
64698;BME280;51124;53.394;-6.294;2024-02-23T11:15:28;97655.19;;;19.55;10.20
64698;BME280;51124;53.394;-6.294;2024-02-23T11:17:51;97653.83;;;19.05;10.24
64698;BME280;51124;53.394;-6.294;2024-02-23T11:20:19;97650.67;;;18.94;10.51
64698;BME280;51124;53.394;-6.294;2024-02-23T11:22:53;97655.00;;;19.57;10.44
64698;BME280;51124;53.394;-6.294;2024-02-23T11:25:21;97656.20;;;19.34;10.56
64698;BME280;51124;53.394;-6.294;2024-02-23T11:27:54;97653.32;;;19.58;10.58
64698;BME280;51124;53.394;-6.294;2024-02-23T11:30:21;97657.57;;;19.26;10.71
64698;BME280;51124;53.394;-6.294;2024-02-23T11:32:50;97655.51;;;20.10;10.62
64698;BME280;51124;53.394;-6.294;2024-02-23T11:35:18;97659.48;;;19.77;10.90
64698;BME280;51124;53.394;-6.294;2024-02-23T11:37:48;97663.47;;;18.84;10.93
64698;BME280;51124;53.394;-6.294;2024-02-23T11:40:17;97663.89;;;18.44;11.18
64698;BME280;51124;53.394;-6.294;2024-02-23T11:42:45;97657.57;;;18.48;11.41
64698;BME280;51124;53.394;-6.294;2024-02-23T11:45:13;97665.25;;;19.44;11.18
64698;BME280;51124;53.394;-6.294;2024-02-23T11:47:41;97661.42;;;19.35;11.06
64698;BME280;51124;53.394;-6.294;2024-02-23T11:50:11;97662.49;;;20.07;10.80
64698;BME280;51124;53.394;-6.294;2024-02-23T11:52:39;97670.16;;;19.24;11.19
64698;BME280;51124;53.394;-6.294;2024-02-23T11:55:08;97666.54;;;19.57;10.84
64698;BME280;51124;53.394;-6.294;2024-02-23T11:57:36;97662.99;;;19.49;11.31
64698;BME280;51124;53.394;-6.294;2024-02-23T12:00:06;97658.36;;;18.33;11.10
64698;BME280;51124;53.394;-6.294;2024-02-23T12:02:34;97660.05;;;17.84;10.81
64698;BME280;51124;53.394;-6.294;2024-02-23T12:05:02;97656.63;;;16.78;10.29
64698;BME280;51124;53.394;-6.294;2024-02-23T12:07:31;97661.87;;;16.96;10.12
64698;BME280;51124;53.394;-6.294;2024-02-23T12:09:59;97655.03;;;17.84;9.75
64698;BME280;51124;53.394;-6.294;2024-02-23T12:12:27;97648.47;;;17.91;9.82
64698;BME280;51124;53.394;-6.294;2024-02-23T12:14:55;97652.33;;;17.87;9.50
64698;BME280;51124;53.394;-6.294;2024-02-23T12:17:22;97652.96;;;17.68;9.33
64698;BME280;51124;53.394;-6.294;2024-02-23T12:19:50;97652.91;;;16.39;9.44
64698;BME280;51124;53.394;-6.294;2024-02-23T12:22:17;97652.25;;;16.91;9.27
64698;BME280;51124;53.394;-6.294;2024-02-23T12:24:44;97654.12;;;17.38;9.04
64698;BME280;51124;53.394;-6.294;2024-02-23T12:27:16;97649.77;;;17.57;8.95
64698;BME280;51124;53.394;-6.294;2024-02-23T12:29:50;97657.84;;;18.07;8.87
64698;BME280;51124;53.394;-6.294;2024-02-23T12:32:22;97658.21;;;17.60;8.70
64698;BME280;51124;53.394;-6.294;2024-02-23T12:34:49;97651.19;;;17.51;8.63
64698;BME280;51124;53.394;-6.294;2024-02-23T12:37:17;97647.78;;;17.97;8.42
64698;BME280;51124;53.394;-6.294;2024-02-23T12:39:45;97658.95;;;17.52;8.28
64698;BME280;51124;53.394;-6.294;2024-02-23T12:42:12;97648.14;;;17.41;8.34
64698;BME280;51124;53.394;-6.294;2024-02-23T12:44:40;97644.73;;;17.07;8.43
64698;BME280;51124;53.394;-6.294;2024-02-23T12:47:07;97643.26;;;17.91;8.10
64698;BME280;51124;53.394;-6.294;2024-02-23T12:49:35;97641.88;;;17.43;8.14
64698;BME280;51124;53.394;-6.294;2024-02-23T12:52:02;97641.87;;;17.35;8.01
64698;BME280;51124;53.394;-6.294;2024-02-23T12:54:29;97629.26;;;18.37;7.95
64698;BME280;51124;53.394;-6.294;2024-02-23T12:56:57;97626.35;;;18.62;7.64
64698;BME280;51124;53.394;-6.294;2024-02-23T12:59:24;97622.30;;;19.25;7.57